Time;durP1;ratioP1;P1;durP2;ratioP2;P2;SDS_P1;SDS_P2;PMS_P1;PMS_P2;Temp;Humidity;BMP_temperature;BMP_pressure;BME280_temperature;BME280_humidity;BME280_pressure;Samples;Min_cycle;Max_cycle;Signal;HPM_P1;HPM_P2
2022/01/15 00:00:52;;;;;;;;;;;;;;;18.50;46.13;100872.78;2080042;28;22669;-40
2022/01/15 00:01:52;;;;;;;;;;;;;;;18.49;46.01;100869.16;2080404;28;20011;-39
2022/01/15 00:02:53;;;;;;;;;;;;;;;18.50;46.13;100867.34;2080612;28;19908;-40
2022/01/15 00:03:53;;;;;;;;;;;;;;;18.50;46.09;100870.94;2084328;28;20432;-39
2022/01/15 00:04:53;;;;;;;;;;;;;;;18.51;46.07;100867.19;2082426;28;19916;-39
2022/01/15 00:05:57;;;;;;;;;;;;;;;18.52;46.10;100865.31;2083520;28;20327;-39
2022/01/15 00:06:57;;;;;;;;;;;;;;;18.53;46.06;100867.06;2079890;28;19943;-39
2022/01/15 00:07:58;;;;;;;;;;;;;;;18.53;45.79;100867.06;2083293;28;19924;-39
2022/01/15 00:08:59;;;;;;;;;;;;;;;18.54;45.89;100866.06;2076441;28;19916;-39
2022/01/15 00:09:59;;;;;;;;;;;;;;;18.54;45.83;100860.59;2086723;28;19931;-39
2022/01/15 00:10:59;;;;;;;;;;;;;;;18.55;45.84;100865.09;2082935;28;19917;-39
2022/01/15 00:12:00;;;;;;;;;;;;;;;18.54;45.80;100864.19;2082714;28;19925;-40
2022/01/15 00:13:01;;;;;;;;;;;;;;;18.55;45.79;100860.50;2078791;28;19989;-40
2022/01/15 00:14:12;;;;;;;;;;;;;;;18.55;45.87;100862.34;2078717;28;20027;-39
2022/01/15 00:15:40;;;;;;;;;;;;;;;18.57;45.79;100855.78;2083944;28;19925;-39
2022/01/15 00:16:45;;;;;;;;;;;;;;;18.58;45.66;100862.09;2079953;28;20247;-39
2022/01/15 00:17:55;;;;;;;;;;;;;;;18.58;45.78;100862.09;2080603;28;20342;-39
2022/01/15 00:19:07;;;;;;;;;;;;;;;18.59;45.76;100858.34;2081939;28;19913;-39
2022/01/15 00:20:08;;;;;;;;;;;;;;;18.58;45.63;100857.50;2077379;28;19916;-40
2022/01/15 00:21:11;;;;;;;;;;;;;;;18.59;45.69;100852.88;2081025;28;19932;-39
2022/01/15 00:22:16;;;;;;;;;;;;;;;18.61;45.70;100859.09;2083506;28;19920;-39
2022/01/15 00:23:16;;;;;;;;;;;;;;;18.62;45.54;100858.13;2084338;28;20273;-39
2022/01/15 00:24:16;;;;;;;;;;;;;;;18.62;45.62;100856.25;2085623;28;19978;-39
2022/01/15 00:25:17;;;;;;;;;;;;;;;18.62;45.68;100855.38;2077606;28;19932;-40
2022/01/15 00:26:18;;;;;;;;;;;;;;;18.62;45.61;100858.13;2077832;28;20620;-39
2022/01/15 00:27:19;;;;;;;;;;;;;;;18.62;45.69;100858.13;2080238;28;19925;-39
2022/01/15 00:28:19;;;;;;;;;;;;;;;18.63;45.47;100859.84;2083481;28;20392;-40
2022/01/15 00:29:19;;;;;;;;;;;;;;;18.65;45.59;100868.78;2082532;28;19917;-39
2022/01/15 00:30:20;;;;;;;;;;;;;;;18.66;45.44;100859.56;2081029;28;20305;-39
2022/01/15 00:31:21;;;;;;;;;;;;;;;18.67;45.48;100860.44;2078686;28;19913;-40
2022/01/15 00:32:21;;;;;;;;;;;;;;;18.67;45.50;100860.44;2083893;28;20120;-39
2022/01/15 00:33:21;;;;;;;;;;;;;;;18.67;45.50;100866.78;2082816;28;19920;-39
2022/01/15 00:34:21;;;;;;;;;;;;;;;18.68;45.57;100868.50;2084736;28;19932;-40
2022/01/15 00:35:23;;;;;;;;;;;;;;;18.69;45.39;100863.91;2084663;28;19959;-39
2022/01/15 00:36:24;;;;;;;;;;;;;;;18.68;45.50;100863.06;2079624;28;19927;-39
2022/01/15 00:37:24;;;;;;;;;;;;;;;18.69;45.52;100859.34;2083419;28;19948;-39
2022/01/15 00:38:24;;;;;;;;;;;;;;;18.70;45.37;100849.28;2081606;28;19986;-40
2022/01/15 00:39:25;;;;;;;;;;;;;;;18.70;45.38;100852.88;2083277;28;19920;-40
2022/01/15 00:40:25;;;;;;;;;;;;;;;18.72;45.33;100850.88;2083436;28;19998;-39
2022/01/15 00:41:27;;;;;;;;;;;;;;;18.71;45.28;100857.31;2083936;28;20213;-39
2022/01/15 00:42:28;;;;;;;;;;;;;;;18.73;45.30;100849.88;2084868;28;19973;-40
2022/01/15 00:43:28;;;;;;;;;;;;;;;18.73;45.26;100852.59;2082811;28;20007;-39
2022/01/15 00:44:29;;;;;;;;;;;;;;;18.75;45.10;100847.88;2080910;28;20325;-39
2022/01/15 00:45:32;;;;;;;;;;;;;;;18.76;45.11;100849.63;2083223;28;19921;-39
2022/01/15 00:46:33;;;;;;;;;;;;;;;18.78;45.13;100836.72;2079200;28;19991;-39
2022/01/15 00:47:33;;;;;;;;;;;;;;;18.78;45.24;100846.78;2080768;28;20335;-39
2022/01/15 00:48:34;;;;;;;;;;;;;;;18.78;45.13;100844.06;2082893;28;20291;-39
2022/01/15 00:49:34;;;;;;;;;;;;;;;18.78;45.23;100847.66;2084652;28;19939;-39
2022/01/15 00:50:34;;;;;;;;;;;;;;;18.80;45.17;100844.81;2081082;28;20173;-39
2022/01/15 00:51:34;;;;;;;;;;;;;;;18.80;45.17;100845.66;2079813;28;19909;-39
2022/01/15 00:52:35;;;;;;;;;;;;;;;18.82;45.21;100843.66;2080155;28;19921;-39
2022/01/15 00:53:36;;;;;;;;;;;;;;;18.84;45.04;100843.56;2080586;28;19947;-40
2022/01/15 00:54:36;;;;;;;;;;;;;;;18.83;45.14;100845.41;2082466;28;19975;-39
2022/01/15 00:55:36;;;;;;;;;;;;;;;18.86;44.96;100852.47;2083818;28;20497;-39
2022/01/15 00:56:36;;;;;;;;;;;;;;;18.86;45.13;100847.00;2084224;28;19917;-39
2022/01/15 00:57:37;;;;;;;;;;;;;;;18.88;45.04;100846.88;2082153;28;19920;-39
2022/01/15 00:58:37;;;;;;;;;;;;;;;18.88;45.00;100841.41;2083793;28;21380;-39
2022/01/15 00:59:37;;;;;;;;;;;;;;;18.88;44.98;100842.28;2083213;28;19912;-39
2022/01/15 01:00:38;;;;;;;;;;;;;;;18.90;45.01;100847.63;2083353;28;19920;-39
2022/01/15 01:01:38;;;;;;;;;;;;;;;18.90;45.04;100844.88;2084114;28;19973;-39
2022/01/15 01:02:38;;;;;;;;;;;;;;;18.91;44.93;100843.88;2081514;28;19926;-39
2022/01/15 01:03:39;;;;;;;;;;;;;;;18.92;44.86;100842.91;2077078;28;19975;-39
2022/01/15 01:04:39;;;;;;;;;;;;;;;18.92;44.86;100840.16;2082130;28;19916;-39
2022/01/15 01:05:39;;;;;;;;;;;;;;;18.93;44.86;100840.00;2082396;28;19920;-39
2022/01/15 01:06:40;;;;;;;;;;;;;;;18.94;44.87;100835.44;2080584;28;19967;-39
2022/01/15 01:07:40;;;;;;;;;;;;;;;18.95;44.86;100842.63;2083422;28;19924;-40
2022/01/15 01:08:40;;;;;;;;;;;;;;;18.95;44.98;100839.91;2080939;28;19927;-39
2022/01/15 01:10:00;;;;;;;;;;;;;;;18.96;44.84;100838.88;2081436;28;19920;-39
2022/01/15 01:11:10;;;;;;;;;;;;;;;18.98;44.79;100847.81;2083182;28;19962;-39
2022/01/15 01:12:26;;;;;;;;;;;;;;;18.99;44.87;100844.09;2084064;28;19966;-39
2022/01/15 01:20:04;;;;;;;;;;;;;;;18.99;44.76;100839.50;2078784;28;20334;-39
2022/01/15 01:20:28;;;;;;;;;;;;;;;19.02;44.76;100836.50;2083325;28;19920;-39
2022/01/15 01:22:57;;;;;;;;;;;;;;;19.05;44.62;100829.91;2080731;28;19920;-39
2022/01/15 01:24:00;;;;;;;;;;;;;;;19.06;44.61;100829.78;2083363;28;19946;-39
2022/01/15 01:25:00;;;;;;;;;;;;;;;19.07;44.60;100830.66;2078984;28;20015;-40
2022/01/15 01:26:12;;;;;;;;;;;;;;;19.08;44.71;100826.03;2083765;28;19917;-39
2022/01/15 01:27:44;;;;;;;;;;;;;;;19.10;44.62;100830.38;2078866;28;19920;-40
2022/01/15 01:28:38;;;;;;;;;;;;;;;19.10;44.49;100835.84;2078596;28;20138;-39
2022/01/15 01:30:06;;;;;;;;;;;;;;;19.12;44.52;100831.13;2084997;28;19916;-39
2022/01/15 01:31:56;;;;;;;;;;;;;;;19.11;44.56;100826.66;2084375;28;19927;-39
2022/01/15 01:32:47;;;;;;;;;;;;;;;19.11;44.46;100826.66;2073180;28;19931;-39
2022/01/15 01:33:52;;;;;;;;;;;;;;;19.14;44.56;100826.38;2082110;28;19920;-39
2022/01/15 01:34:53;;;;;;;;;;;;;;;19.14;44.48;100823.66;2083906;28;19916;-39
2022/01/15 01:36:11;;;;;;;;;;;;;;;19.14;44.40;100820.91;2079599;28;19920;-40
2022/01/15 01:38:27;;;;;;;;;;;;;;;19.15;44.48;100821.78;2085316;28;19921;-40
2022/01/15 01:39:43;;;;;;;;;;;;;;;19.17;44.41;100833.44;2085027;28;19921;-39
2022/01/15 01:40:48;;;;;;;;;;;;;;;19.16;44.41;100829.84;2081041;28;19927;-39
2022/01/15 01:42:07;;;;;;;;;;;;;;;19.18;44.30;100838.78;2088904;28;19920;-40
2022/01/15 01:43:40;;;;;;;;;;;;;;;19.19;44.38;100831.47;2082105;28;19936;-39
2022/01/15 01:44:27;;;;;;;;;;;;;;;19.19;44.39;100829.59;2083462;28;20014;-39
2022/01/15 01:45:28;;;;;;;;;;;;;;;19.19;44.32;100826.84;2086551;28;20246;-40
2022/01/15 01:47:39;;;;;;;;;;;;;;;19.22;44.30;100828.44;2082501;28;19955;-39
2022/01/15 01:48:40;;;;;;;;;;;;;;;19.22;44.25;100826.56;2079083;28;19917;-40
2022/01/15 01:49:42;;;;;;;;;;;;;;;19.23;44.17;100825.59;2085339;28;20348;-40
2022/01/15 01:50:42;;;;;;;;;;;;;;;19.23;44.16;100825.59;2085785;28;20338;-40
2022/01/15 01:51:43;;;;;;;;;;;;;;;19.24;44.24;100832.78;2082444;28;19928;-39
2022/01/15 01:52:47;;;;;;;;;;;;;;;19.25;44.18;100829.03;2086092;28;19938;-39
2022/01/15 01:53:48;;;;;;;;;;;;;;;19.26;44.16;100829.94;2084934;28;19920;-40
2022/01/15 01:54:48;;;;;;;;;;;;;;;19.25;44.15;100823.56;2085230;28;19924;-39
2022/01/15 01:55:49;;;;;;;;;;;;;;;19.26;44.11;100829.94;2083986;28;19920;-39
2022/01/15 01:56:50;;;;;;;;;;;;;;;19.26;44.07;100825.31;2081410;28;20251;-39
2022/01/15 01:57:51;;;;;;;;;;;;;;;19.27;43.99;100821.56;2082352;28;19916;-40
2022/01/15 01:58:52;;;;;;;;;;;;;;;19.28;44.03;100820.59;2084952;28;19917;-40
2022/01/15 01:59:52;;;;;;;;;;;;;;;19.28;44.01;100811.53;2084560;28;20191;-40
2022/01/15 02:00:52;;;;;;;;;;;;;;;19.27;44.16;100816.09;2084412;28;19913;-40
2022/01/15 02:01:53;;;;;;;;;;;;;;;19.30;44.08;100819.56;2079678;28;19980;-39
2022/01/15 02:02:53;;;;;;;;;;;;;;;19.30;43.99;100819.56;2079291;28;19959;-40
2022/01/15 02:03:54;;;;;;;;;;;;;;;19.31;43.98;100810.41;2078471;28;20007;-39
2022/01/15 02:04:58;;;;;;;;;;;;;;;19.31;43.95;100813.13;2084867;28;19913;-40
2022/01/15 02:05:58;;;;;;;;;;;;;;;19.30;43.99;100814.97;2082340;28;19917;-39
2022/01/15 02:07:00;;;;;;;;;;;;;;;19.32;44.01;100812.97;2079093;28;20347;-39
2022/01/15 02:08:00;;;;;;;;;;;;;;;19.33;44.08;100819.31;2082767;28;20007;-39
2022/01/15 02:09:04;;;;;;;;;;;;;;;19.33;44.02;100819.31;2080178;28;19919;-39
2022/01/15 02:10:05;;;;;;;;;;;;;;;19.33;43.94;100817.47;2083490;28;19916;-39
2022/01/15 02:11:06;;;;;;;;;;;;;;;19.33;43.97;100813.84;2083163;28;19908;-43
2022/01/15 02:12:07;;;;;;;;;;;;;;;19.33;43.96;100813.84;2085579;28;20029;-39
2022/01/15 02:13:10;;;;;;;;;;;;;;;19.35;43.83;100820.03;2082755;28;19917;-39
2022/01/15 02:14:23;;;;;;;;;;;;;;;19.33;43.93;100812.00;2080406;28;19927;-39
2022/01/15 02:15:24;;;;;;;;;;;;;;;19.36;43.98;100808.13;2076658;28;19917;-40
2022/01/15 02:16:24;;;;;;;;;;;;;;;19.33;43.88;100811.09;2084178;28;20016;-39
2022/01/15 02:17:26;;;;;;;;;;;;;;;19.34;43.97;100812.84;2082468;28;19919;-39
2022/01/15 02:18:27;;;;;;;;;;;;;;;19.34;43.91;100799.19;2086936;28;19964;-40
2022/01/15 02:19:31;;;;;;;;;;;;;;;19.35;43.84;100811.84;2084405;28;19924;-40
2022/01/15 02:24:07;;;;;;;;;;;;;;;19.35;43.93;100815.44;2084040;28;19980;-39
2022/01/15 02:25:08;;;;;;;;;;;;;;;19.37;43.93;100815.31;2084137;28;20340;-40
2022/01/15 02:26:09;;;;;;;;;;;;;;;19.36;43.84;100811.72;2079042;28;19973;-39
2022/01/15 02:27:10;;;;;;;;;;;;;;;19.35;43.85;100815.44;2081621;28;19917;-39
2022/01/15 02:28:10;;;;;;;;;;;;;;;19.37;43.90;100815.31;2084855;28;19920;-39
2022/01/15 02:29:12;;;;;;;;;;;;;;;19.36;43.82;100813.59;2084375;28;19932;-40
2022/01/15 02:30:13;;;;;;;;;;;;;;;19.36;43.84;100817.19;2084979;28;20215;-39
2022/01/15 02:31:14;;;;;;;;;;;;;;;19.35;43.86;100815.44;2079073;28;19967;-40
2022/01/15 02:32:15;;;;;;;;;;;;;;;19.36;43.90;100808.13;2085497;28;19932;-39
2022/01/15 02:33:15;;;;;;;;;;;;;;;19.36;43.91;100805.38;2084033;28;20368;-40
2022/01/15 02:34:16;;;;;;;;;;;;;;;19.37;43.86;100809.84;2086808;28;19924;-43
2022/01/15 02:35:16;;;;;;;;;;;;;;;19.38;43.89;100808.88;2083144;28;19921;-40
2022/01/15 02:36:18;;;;;;;;;;;;;;;19.36;43.93;100802.66;2085910;28;19979;-39
2022/01/15 02:37:19;;;;;;;;;;;;;;;19.37;43.90;100804.38;2083624;28;19928;-39
2022/01/15 02:38:19;;;;;;;;;;;;;;;19.36;43.93;100805.38;2084394;28;19931;-40
2022/01/15 02:39:19;;;;;;;;;;;;;;;19.36;43.85;100803.53;2079856;28;20388;-39
2022/01/15 02:40:20;;;;;;;;;;;;;;;19.36;43.93;100803.53;2081299;28;19967;-40
2022/01/15 02:41:28;;;;;;;;;;;;;;;19.34;43.91;100800.03;2084097;28;19958;-40
2022/01/15 02:42:30;;;;;;;;;;;;;;;19.34;43.89;100805.50;2085179;28;20282;-39
2022/01/15 02:43:34;;;;;;;;;;;;;;;19.35;43.88;100806.38;2082778;28;20015;-39
2022/01/15 02:44:38;;;;;;;;;;;;;;;19.34;43.91;100804.66;2085115;28;20716;-40
2022/01/15 02:45:42;;;;;;;;;;;;;;;19.34;43.86;100804.66;2082988;28;20329;-39
2022/01/15 02:48:02;;;;;;;;;;;;;;;19.31;43.94;100789.38;2080431;28;20185;-40
2022/01/15 02:49:04;;;;;;;;;;;;;;;19.32;43.92;100795.72;2081998;28;19924;-39
2022/01/15 02:50:06;;;;;;;;;;;;;;;19.33;43.93;100798.31;2084768;28;19967;-43
2022/01/15 02:51:07;;;;;;;;;;;;;;;19.32;43.99;100792.97;2081744;28;19932;-39
2022/01/15 02:52:07;;;;;;;;;;;;;;;19.31;43.96;100799.47;2080697;28;19990;-39
2022/01/15 02:53:08;;;;;;;;;;;;;;;19.31;44.05;100799.47;2083909;28;20002;-39
2022/01/15 02:54:09;;;;;;;;;;;;;;;19.30;43.92;100789.50;2083695;28;20443;-39
2022/01/15 02:55:10;;;;;;;;;;;;;;;19.28;43.98;100798.72;2084297;28;20002;-39
2022/01/15 02:56:10;;;;;;;;;;;;;;;19.28;44.07;100796.00;2081087;28;20038;-39
2022/01/15 02:57:10;;;;;;;;;;;;;;;19.27;44.14;100794.25;2080922;28;19925;-39
2022/01/15 02:58:11;;;;;;;;;;;;;;;19.26;44.00;100798.00;2078894;28;20350;-39
2022/01/15 02:59:21;;;;;;;;;;;;;;;19.25;44.07;100790.78;2084674;28;19912;-39
2022/01/15 03:00:26;;;;;;;;;;;;;;;19.25;44.06;100795.38;2083807;28;19920;-39
2022/01/15 03:01:26;;;;;;;;;;;;;;;19.24;44.06;100789.06;2083664;28;19924;-39
2022/01/15 03:02:31;;;;;;;;;;;;;;;19.24;44.06;100794.53;2079119;28;19920;-39
2022/01/15 03:03:32;;;;;;;;;;;;;;;19.23;44.10;100792.78;2085114;28;19920;-39
2022/01/15 03:04:33;;;;;;;;;;;;;;;19.23;44.07;100786.44;2085038;28;19974;-39
2022/01/15 03:05:33;;;;;;;;;;;;;;;19.24;44.10;100782.72;2082980;28;20033;-39
2022/01/15 03:06:33;;;;;;;;;;;;;;;19.22;44.13;100785.59;2081655;28;19971;-39
2022/01/15 03:07:34;;;;;;;;;;;;;;;19.22;44.12;100780.13;2079350;28;20315;-39
2022/01/15 03:08:34;;;;;;;;;;;;;;;19.23;44.20;100781.88;2078755;28;19982;-39
2022/01/15 03:09:34;;;;;;;;;;;;;;;19.22;44.11;100779.25;2082043;28;19920;-40
2022/01/15 03:10:35;;;;;;;;;;;;;;;19.21;44.02;100775.66;2084816;28;19921;-39
2022/01/15 03:11:35;;;;;;;;;;;;;;;19.21;44.12;100778.41;2083613;28;19952;-39
2022/01/15 03:12:36;;;;;;;;;;;;;;;19.22;44.15;100780.13;2081016;28;19932;-39
2022/01/15 03:13:37;;;;;;;;;;;;;;;19.21;44.08;100783.84;2082456;28;20356;-39
2022/01/15 03:14:37;;;;;;;;;;;;;;;19.21;44.14;100780.28;2082899;28;19920;-40
2022/01/15 03:15:38;;;;;;;;;;;;;;;19.20;43.99;100779.38;2083082;28;19956;-39
2022/01/15 03:16:38;;;;;;;;;;;;;;;19.21;44.08;100785.72;2085844;28;20170;-39
2022/01/15 03:17:39;;;;;;;;;;;;;;;19.18;44.22;100775.94;2083965;28;19978;-39
2022/01/15 03:18:39;;;;;;;;;;;;;;;19.18;44.15;100780.50;2084012;28;20203;-39
2022/01/15 03:19:39;;;;;;;;;;;;;;;19.18;44.07;100778.66;2083908;28;19920;-39
2022/01/15 03:20:40;;;;;;;;;;;;;;;19.18;44.21;100778.66;2085003;28;19942;-39
2022/01/15 03:21:40;;;;;;;;;;;;;;;19.19;44.11;100782.25;2083163;28;19944;-39
2022/01/15 03:22:41;;;;;;;;;;;;;;;19.19;44.02;100774.94;2081860;28;20379;-39
2022/01/15 03:23:41;;;;;;;;;;;;;;;19.17;44.16;100776.91;2081522;28;20578;-39
2022/01/15 03:24:41;;;;;;;;;;;;;;;19.17;44.11;100774.19;2083832;28;20075;-39
2022/01/15 03:25:42;;;;;;;;;;;;;;;19.17;44.21;100776.06;2081131;28;19925;-39
2022/01/15 03:26:42;;;;;;;;;;;;;;;19.17;44.23;100776.06;2081376;28;20198;-39
2022/01/15 03:27:43;;;;;;;;;;;;;;;19.16;44.17;100775.19;2081656;28;19935;-39
2022/01/15 03:28:43;;;;;;;;;;;;;;;19.16;44.15;100768.88;2081152;28;19919;-39
2022/01/15 03:29:43;;;;;;;;;;;;;;;19.15;44.25;100770.72;2079228;28;19912;-39
2022/01/15 03:30:44;;;;;;;;;;;;;;;19.15;44.12;100767.97;2084145;28;19912;-39
2022/01/15 03:31:44;;;;;;;;;;;;;;;19.13;44.12;100759.03;2081799;28;19998;-39
2022/01/15 03:32:45;;;;;;;;;;;;;;;19.14;44.22;100765.41;2077107;28;20235;-39
2022/01/15 03:33:45;;;;;;;;;;;;;;;19.13;44.15;100759.03;2080278;28;19916;-39
2022/01/15 03:34:46;;;;;;;;;;;;;;;19.12;44.17;100760.06;2079999;28;20249;-39
2022/01/15 03:35:47;;;;;;;;;;;;;;;19.13;44.20;100758.19;2083459;28;20254;-39
2022/01/15 03:36:47;;;;;;;;;;;;;;;19.12;44.24;100759.19;2078649;28;19924;-39
2022/01/15 03:37:47;;;;;;;;;;;;;;;19.12;44.17;100756.47;2083989;28;20220;-39
2022/01/15 03:38:47;;;;;;;;;;;;;;;19.11;44.22;100750.16;2084512;28;19912;-39
2022/01/15 03:39:48;;;;;;;;;;;;;;;19.11;44.26;100754.72;2085635;28;20512;-39
2022/01/15 03:40:48;;;;;;;;;;;;;;;19.10;44.19;100750.25;2081783;28;20015;-39
2022/01/15 03:41:48;;;;;;;;;;;;;;;19.09;44.30;100752.13;2078755;28;19921;-39
2022/01/15 03:42:49;;;;;;;;;;;;;;;19.09;44.36;100751.28;2077772;28;20266;-39
2022/01/15 03:43:49;;;;;;;;;;;;;;;19.08;44.26;100755.84;2081722;28;19916;-39
2022/01/15 03:44:50;;;;;;;;;;;;;;;19.07;44.37;100751.41;2083854;28;19923;-40
2022/01/15 03:45:50;;;;;;;;;;;;;;;19.07;44.23;100748.66;2078651;28;20373;-39
2022/01/15 03:46:51;;;;;;;;;;;;;;;19.07;44.25;100756.88;2080607;28;19958;-39
2022/01/15 03:47:51;;;;;;;;;;;;;;;19.07;44.32;100754.13;2081616;28;19939;-39
2022/01/15 03:48:52;;;;;;;;;;;;;;;19.05;44.29;100756.13;2084287;28;19955;-40
2022/01/15 03:49:53;;;;;;;;;;;;;;;19.05;44.32;100756.13;2082946;28;20019;-39
2022/01/15 03:50:53;;;;;;;;;;;;;;;19.04;44.27;100754.41;2085063;28;19905;-39
2022/01/15 03:51:53;;;;;;;;;;;;;;;19.04;44.33;100759.88;2087698;28;20013;-39
2022/01/15 03:52:55;;;;;;;;;;;;;;;19.03;44.31;100752.66;2083056;28;20283;-39
2022/01/15 03:53:55;;;;;;;;;;;;;;;19.01;44.39;100750.06;2083743;28;19912;-39
2022/01/15 03:54:56;;;;;;;;;;;;;;;19.02;44.32;100748.22;2079618;28;19916;-39
2022/01/15 03:55:56;;;;;;;;;;;;;;;19.00;44.35;100752.94;2081572;28;19923;-40
2022/01/15 03:56:56;;;;;;;;;;;;;;;19.02;44.36;100756.41;2083595;28;19923;-39
2022/01/15 03:57:59;;;;;;;;;;;;;;;19.00;44.50;100753.78;2082290;28;20123;-39
2022/01/15 03:59:00;;;;;;;;;;;;;;;18.99;44.41;100757.53;2084461;28;19919;-40
2022/01/15 04:00:00;;;;;;;;;;;;;;;18.98;44.38;100752.19;2083539;28;20002;-39
2022/01/15 04:01:01;;;;;;;;;;;;;;;18.98;44.42;100754.94;2080427;28;19924;-40
2022/01/15 04:02:01;;;;;;;;;;;;;;;18.97;44.45;100751.34;2084446;28;19916;-39
2022/01/15 04:03:03;;;;;;;;;;;;;;;18.97;44.40;100753.22;2081746;28;19962;-39
2022/01/15 04:04:04;;;;;;;;;;;;;;;18.96;44.58;100757.81;2083354;28;19913;-40
2022/01/15 04:05:04;;;;;;;;;;;;;;;18.95;44.47;100752.47;2084653;28;19978;-39
2022/01/15 04:06:04;;;;;;;;;;;;;;;18.95;44.57;100752.47;2077447;28;19919;-39
2022/01/15 04:07:05;;;;;;;;;;;;;;;18.94;44.45;100758.94;2084569;28;20223;-39
2022/01/15 04:08:06;;;;;;;;;;;;;;;18.94;44.46;100756.22;2083636;28;19927;-39
2022/01/15 04:09:06;;;;;;;;;;;;;;;18.93;44.41;100751.72;2084439;28;19916;-39
2022/01/15 04:10:08;;;;;;;;;;;;;;;18.92;44.61;100750.88;2082337;28;20369;-40
2022/01/15 04:11:08;;;;;;;;;;;;;;;18.92;44.55;100756.34;2078756;28;20365;-39
2022/01/15 04:12:09;;;;;;;;;;;;;;;18.92;44.67;100752.75;2085016;28;19920;-39
2022/01/15 04:13:10;;;;;;;;;;;;;;;18.91;44.69;100753.72;2084648;28;20348;-39
2022/01/15 04:14:10;;;;;;;;;;;;;;;18.89;44.53;100750.25;2082023;28;19915;-39
2022/01/15 04:15:13;;;;;;;;;;;;;;;18.87;44.68;100755.88;2085006;28;20376;-39
2022/01/15 04:16:13;;;;;;;;;;;;;;;18.87;44.53;100750.41;2084425;28;19927;-39
2022/01/15 04:17:14;;;;;;;;;;;;;;;18.86;44.63;100751.38;2082636;28;20011;-39
2022/01/15 04:18:14;;;;;;;;;;;;;;;18.86;44.66;100745.91;2083059;28;19916;-39
2022/01/15 04:19:14;;;;;;;;;;;;;;;18.84;44.67;100743.34;2082219;28;19916;-39
2022/01/15 04:20:18;;;;;;;;;;;;;;;18.84;44.71;100746.06;2084855;28;20320;-40
2022/01/15 04:21:18;;;;;;;;;;;;;;;18.84;44.57;100751.53;2083206;28;19928;-39
2022/01/15 04:22:18;;;;;;;;;;;;;;;18.82;44.61;100745.34;2082317;28;19930;-39
2022/01/15 04:23:19;;;;;;;;;;;;;;;18.83;44.70;100744.31;2084697;28;19924;-39
2022/01/15 04:24:20;;;;;;;;;;;;;;;18.81;44.71;100749.09;2080589;28;19916;-39
2022/01/15 04:25:21;;;;;;;;;;;;;;;18.82;44.72;100747.22;2085977;28;19920;-39
2022/01/15 04:26:25;;;;;;;;;;;;;;;18.81;44.89;100742.72;2077969;28;19920;-39
2022/01/15 04:27:25;;;;;;;;;;;;;;;18.81;44.65;100740.00;2083691;28;19939;-39
2022/01/15 04:28:27;;;;;;;;;;;;;;;18.81;44.77;100743.63;2084857;28;19932;-39
2022/01/15 04:29:27;;;;;;;;;;;;;;;18.81;44.75;100738.16;2084656;28;20274;-39
2022/01/15 04:30:28;;;;;;;;;;;;;;;18.80;44.66;100741.88;2080904;28;19917;-40
2022/01/15 04:31:34;;;;;;;;;;;;;;;18.80;44.58;100741.88;2084455;28;21342;-39
2022/01/15 04:32:35;;;;;;;;;;;;;;;18.78;44.63;100738.41;2081005;28;20191;-39
2022/01/15 04:33:37;;;;;;;;;;;;;;;18.78;44.65;100743.84;2084694;28;19947;-39
2022/01/15 04:34:37;;;;;;;;;;;;;;;18.77;44.69;100736.69;2078210;28;19956;-39
2022/01/15 04:35:37;;;;;;;;;;;;;;;18.74;44.80;100736.91;2084033;28;20326;-39
2022/01/15 04:36:38;;;;;;;;;;;;;;;18.77;44.69;100741.28;2080061;28;19913;-39
2022/01/15 04:37:42;;;;;;;;;;;;;;;18.75;44.72;100738.63;2085039;28;20161;-40
2022/01/15 04:38:44;;;;;;;;;;;;;;;18.76;44.69;100740.38;2080908;28;20320;-39
2022/01/15 04:39:45;;;;;;;;;;;;;;;18.76;44.75;100734.06;2084934;28;20626;-39
2022/01/15 04:40:46;;;;;;;;;;;;;;;18.75;44.83;100735.03;2084327;28;19967;-39
2022/01/15 04:41:46;;;;;;;;;;;;;;;18.74;44.86;100736.91;2083696;28;20059;-39
2022/01/15 04:42:46;;;;;;;;;;;;;;;18.75;44.75;100732.31;2085230;28;19989;-39
2022/01/15 04:43:47;;;;;;;;;;;;;;;18.74;44.75;100742.38;2081950;28;19927;-39
2022/01/15 04:44:47;;;;;;;;;;;;;;;18.73;44.72;100737.91;2082663;28;19920;-39
2022/01/15 04:45:47;;;;;;;;;;;;;;;18.72;44.72;100733.44;2084251;28;20274;-39
2022/01/15 04:46:48;;;;;;;;;;;;;;;18.72;44.75;100738.91;2083289;28;19920;-39
2022/01/15 04:47:48;;;;;;;;;;;;;;;18.71;44.92;100741.75;2084413;28;19928;-39
2022/01/15 04:48:48;;;;;;;;;;;;;;;18.70;44.73;100738.16;2081095;28;19920;-39
2022/01/15 04:49:48;;;;;;;;;;;;;;;18.70;44.78;100735.44;2078627;28;19912;-39
2022/01/15 04:50:49;;;;;;;;;;;;;;;18.69;44.88;100741.91;2084531;28;20468;-39
2022/01/15 04:51:49;;;;;;;;;;;;;;;18.70;44.89;100740.91;2082150;28;19921;-39
2022/01/15 04:52:49;;;;;;;;;;;;;;;18.68;44.96;100737.44;2081670;28;20013;-39
2022/01/15 04:53:50;;;;;;;;;;;;;;;18.68;44.95;100745.63;2084427;28;19920;-39
2022/01/15 04:54:50;;;;;;;;;;;;;;;18.69;45.01;100750.09;2081019;28;19979;-39
2022/01/15 04:55:50;;;;;;;;;;;;;;;18.68;44.88;100747.50;2084176;28;19998;-40
2022/01/15 04:56:51;;;;;;;;;;;;;;;18.67;44.82;100743.00;2083887;28;20398;-39
2022/01/15 04:57:51;;;;;;;;;;;;;;;18.68;44.93;100750.22;2083321;28;19997;-39
2022/01/15 04:58:52;;;;;;;;;;;;;;;18.66;44.84;100733.09;2084438;28;19967;-39
2022/01/15 04:59:52;;;;;;;;;;;;;;;18.67;44.99;100735.72;2084031;28;20315;-39
2022/01/15 05:00:52;;;;;;;;;;;;;;;18.66;44.88;100739.41;2078446;28;19936;-39
2022/01/15 05:01:52;;;;;;;;;;;;;;;18.64;45.04;100745.03;2082567;28;20398;-39
2022/01/15 05:02:53;;;;;;;;;;;;;;;18.64;44.99;100741.41;2078179;28;20330;-40
2022/01/15 05:03:53;;;;;;;;;;;;;;;18.62;44.92;100738.84;2078207;28;19931;-40
2022/01/15 05:04:54;;;;;;;;;;;;;;;18.63;45.04;100739.69;2081298;28;19921;-39
2022/01/15 05:05:54;;;;;;;;;;;;;;;18.62;44.92;100743.44;2092130;28;19974;-40
2022/01/15 05:06:54;;;;;;;;;;;;;;;18.62;44.92;100738.84;2076591;28;22081;-39
2022/01/15 05:07:55;;;;;;;;;;;;;;;18.61;45.01;100739.81;2082348;28;19938;-39
2022/01/15 05:09:06;;;;;;;;;;;;;;;18.62;45.06;100746.16;2083040;28;21387;-39
2022/01/15 05:10:08;;;;;;;;;;;;;;;18.61;44.95;100741.69;2083215;28;20011;-39
2022/01/15 05:11:26;;;;;;;;;;;;;;;18.61;44.89;100738.94;2084144;28;19927;-39
2022/01/15 05:13:30;;;;;;;;;;;;;;;18.59;44.94;100740.94;2087202;28;19964;-40
2022/01/15 05:14:30;;;;;;;;;;;;;;;18.58;44.92;100739.22;2081743;28;20221;-40
2022/01/15 05:15:31;;;;;;;;;;;;;;;18.58;45.03;100739.22;2083586;28;20640;-39
2022/01/15 05:16:31;;;;;;;;;;;;;;;18.58;45.03;100736.50;2085492;28;19924;-39
2022/01/15 05:17:31;;;;;;;;;;;;;;;18.58;44.84;100736.50;2081903;28;20036;-39
2022/01/15 05:18:31;;;;;;;;;;;;;;;18.57;45.07;100740.19;2086191;28;20158;-39
2022/01/15 05:19:33;;;;;;;;;;;;;;;18.56;45.07;100741.22;2084089;28;20171;-39
2022/01/15 05:20:34;;;;;;;;;;;;;;;18.56;45.00;100741.22;2084876;28;19920;-39
2022/01/15 05:21:34;;;;;;;;;;;;;;;18.55;44.97;100729.44;2086042;28;20239;-39
2022/01/15 05:22:35;;;;;;;;;;;;;;;18.54;45.03;100735.00;2085653;28;20352;-39
2022/01/15 05:23:35;;;;;;;;;;;;;;;18.54;45.09;100733.13;2085209;28;19926;-39
2022/01/15 05:24:35;;;;;;;;;;;;;;;18.55;45.10;100734.03;2086438;28;20334;-39
2022/01/15 05:25:36;;;;;;;;;;;;;;;18.54;44.97;100735.88;2082752;28;20227;-39
2022/01/15 05:26:36;;;;;;;;;;;;;;;18.53;45.16;100738.75;2085949;28;19969;-39
2022/01/15 05:27:36;;;;;;;;;;;;;;;18.53;45.05;100736.03;2083586;28;20329;-39
2022/01/15 05:28:37;;;;;;;;;;;;;;;18.52;45.10;100732.44;2085653;28;19988;-39
2022/01/15 05:29:37;;;;;;;;;;;;;;;18.53;45.00;100738.75;2079936;28;19924;-39
2022/01/15 05:30:38;;;;;;;;;;;;;;;18.51;45.08;100738.00;2085534;28;19947;-39
2022/01/15 05:31:38;;;;;;;;;;;;;;;18.50;45.00;100733.56;2082317;28;19925;-39
2022/01/15 05:32:38;;;;;;;;;;;;;;;18.50;45.06;100733.56;2084770;28;20357;-39
2022/01/15 05:33:39;;;;;;;;;;;;;;;18.50;45.04;100733.56;2084924;28;20273;-39